sensor_id;sensor_type;location;lat;lon;timestamp;P1;durP1;ratioP1;P2;durP2;ratioP2
37641;SDS011;23486;51.956;5.888;2023-05-10T00:00:13;48.25;;;23.08;;
37641;SDS011;23486;51.956;5.888;2023-05-10T00:02:40;52.67;;;25.33;;
37641;SDS011;23486;51.956;5.888;2023-05-10T00:05:05;58.75;;;26.67;;
37641;SDS011;23486;51.956;5.888;2023-05-10T00:07:31;52.22;;;24.38;;
37641;SDS011;23486;51.956;5.888;2023-05-10T00:09:57;56.53;;;27.73;;
37641;SDS011;23486;51.956;5.888;2023-05-10T00:12:23;45.92;;;23.70;;
37641;SDS011;23486;51.956;5.888;2023-05-10T00:14:48;54.70;;;26.50;;
37641;SDS011;23486;51.956;5.888;2023-05-10T00:17:14;55.45;;;27.42;;
37641;SDS011;23486;51.956;5.888;2023-05-10T00:19:39;56.35;;;27.88;;
37641;SDS011;23486;51.956;5.888;2023-05-10T00:22:05;60.92;;;29.50;;
37641;SDS011;23486;51.956;5.888;2023-05-10T00:24:31;58.25;;;30.15;;
37641;SDS011;23486;51.956;5.888;2023-05-10T00:26:56;57.70;;;30.60;;
37641;SDS011;23486;51.956;5.888;2023-05-10T00:29:22;61.65;;;32.78;;
37641;SDS011;23486;51.956;5.888;2023-05-10T00:31:47;64.57;;;31.50;;
37641;SDS011;23486;51.956;5.888;2023-05-10T00:34:13;68.30;;;33.33;;
37641;SDS011;23486;51.956;5.888;2023-05-10T00:36:38;61.03;;;29.90;;
37641;SDS011;23486;51.956;5.888;2023-05-10T00:39:04;66.03;;;30.23;;
37641;SDS011;23486;51.956;5.888;2023-05-10T00:41:30;59.80;;;29.58;;
37641;SDS011;23486;51.956;5.888;2023-05-10T00:43:58;69.15;;;31.60;;
37641;SDS011;23486;51.956;5.888;2023-05-10T00:46:24;64.50;;;29.48;;
37641;SDS011;23486;51.956;5.888;2023-05-10T00:48:50;65.15;;;30.75;;
37641;SDS011;23486;51.956;5.888;2023-05-10T00:51:16;71.70;;;32.00;;
37641;SDS011;23486;51.956;5.888;2023-05-10T00:53:43;65.47;;;31.25;;
37641;SDS011;23486;51.956;5.888;2023-05-10T00:56:10;71.32;;;32.97;;
37641;SDS011;23486;51.956;5.888;2023-05-10T00:58:35;66.43;;;32.78;;
37641;SDS011;23486;51.956;5.888;2023-05-10T01:01:01;74.47;;;33.65;;
37641;SDS011;23486;51.956;5.888;2023-05-10T01:03:27;66.88;;;31.33;;
37641;SDS011;23486;51.956;5.888;2023-05-10T01:05:53;67.75;;;31.77;;
37641;SDS011;23486;51.956;5.888;2023-05-10T01:08:20;68.40;;;32.65;;
37641;SDS011;23486;51.956;5.888;2023-05-10T01:10:46;75.70;;;33.47;;
37641;SDS011;23486;51.956;5.888;2023-05-10T01:13:14;68.57;;;33.63;;
37641;SDS011;23486;51.956;5.888;2023-05-10T01:15:48;70.40;;;32.97;;
37641;SDS011;23486;51.956;5.888;2023-05-10T01:18:14;77.28;;;34.13;;
37641;SDS011;23486;51.956;5.888;2023-05-10T01:20:43;75.95;;;33.47;;
37641;SDS011;23486;51.956;5.888;2023-05-10T01:23:30;69.35;;;33.00;;
37641;SDS011;23486;51.956;5.888;2023-05-10T01:34:32;73.60;;;32.92;;
37641;SDS011;23486;51.956;5.888;2023-05-10T01:37:11;73.05;;;33.00;;
37641;SDS011;23486;51.956;5.888;2023-05-10T01:39:55;67.30;;;33.47;;
37641;SDS011;23486;51.956;5.888;2023-05-10T01:42:29;75.87;;;30.97;;
37641;SDS011;23486;51.956;5.888;2023-05-10T01:45:11;70.60;;;31.70;;
37641;SDS011;23486;51.956;5.888;2023-05-10T01:47:42;69.20;;;30.80;;
37641;SDS011;23486;51.956;5.888;2023-05-10T01:50:28;60.90;;;29.65;;
37641;SDS011;23486;51.956;5.888;2023-05-10T01:52:56;64.53;;;29.38;;
37641;SDS011;23486;51.956;5.888;2023-05-10T01:55:25;55.55;;;27.63;;
37641;SDS011;23486;51.956;5.888;2023-05-10T01:58:02;63.28;;;28.15;;
37641;SDS011;23486;51.956;5.888;2023-05-10T02:00:34;59.85;;;25.63;;
37641;SDS011;23486;51.956;5.888;2023-05-10T02:03:01;64.32;;;27.60;;
37641;SDS011;23486;51.956;5.888;2023-05-10T02:05:31;59.55;;;27.85;;
37641;SDS011;23486;51.956;5.888;2023-05-10T02:07:58;48.28;;;23.05;;
37641;SDS011;23486;51.956;5.888;2023-05-10T02:10:26;64.78;;;25.92;;
37641;SDS011;23486;51.956;5.888;2023-05-10T02:12:53;68.65;;;27.58;;
37641;SDS011;23486;51.956;5.888;2023-05-10T02:15:23;74.90;;;29.48;;
37641;SDS011;23486;51.956;5.888;2023-05-10T02:17:49;65.50;;;27.08;;
37641;SDS011;23486;51.956;5.888;2023-05-10T02:20:17;64.63;;;26.83;;
37641;SDS011;23486;51.956;5.888;2023-05-10T02:22:44;57.92;;;24.15;;
37641;SDS011;23486;51.956;5.888;2023-05-10T02:25:12;66.43;;;27.75;;
37641;SDS011;23486;51.956;5.888;2023-05-10T02:27:40;70.68;;;27.83;;
37641;SDS011;23486;51.956;5.888;2023-05-10T02:30:08;70.07;;;28.23;;
37641;SDS011;23486;51.956;5.888;2023-05-10T02:32:35;76.10;;;31.38;;
37641;SDS011;23486;51.956;5.888;2023-05-10T02:35:02;74.30;;;30.00;;
37641;SDS011;23486;51.956;5.888;2023-05-10T02:37:29;75.80;;;30.38;;
37641;SDS011;23486;51.956;5.888;2023-05-10T02:39:55;75.28;;;30.17;;
37641;SDS011;23486;51.956;5.888;2023-05-10T02:42:26;79.95;;;31.60;;
37641;SDS011;23486;51.956;5.888;2023-05-10T02:44:53;75.72;;;29.48;;
37641;SDS011;23486;51.956;5.888;2023-05-10T02:47:24;79.85;;;29.40;;
37641;SDS011;23486;51.956;5.888;2023-05-10T02:49:50;83.03;;;34.40;;
37641;SDS011;23486;51.956;5.888;2023-05-10T02:52:16;83.18;;;32.40;;
37641;SDS011;23486;51.956;5.888;2023-05-10T02:54:49;70.68;;;30.77;;
37641;SDS011;23486;51.956;5.888;2023-05-10T02:57:21;79.75;;;34.47;;
37641;SDS011;23486;51.956;5.888;2023-05-10T02:59:52;82.68;;;35.53;;
37641;SDS011;23486;51.956;5.888;2023-05-10T03:02:17;91.43;;;39.22;;
37641;SDS011;23486;51.956;5.888;2023-05-10T03:04:43;91.63;;;38.55;;
37641;SDS011;23486;51.956;5.888;2023-05-10T03:07:09;92.03;;;39.97;;
37641;SDS011;23486;51.956;5.888;2023-05-10T03:09:35;86.68;;;36.80;;
37641;SDS011;23486;51.956;5.888;2023-05-10T03:17:15;86.93;;;38.65;;
37641;SDS011;23486;51.956;5.888;2023-05-10T03:19:53;82.00;;;37.75;;
37641;SDS011;23486;51.956;5.888;2023-05-10T03:22:30;91.13;;;38.40;;
37641;SDS011;23486;51.956;5.888;2023-05-10T03:24:57;82.68;;;37.95;;
37641;SDS011;23486;51.956;5.888;2023-05-10T03:27:25;86.20;;;38.80;;
37641;SDS011;23486;51.956;5.888;2023-05-10T03:29:53;78.57;;;35.15;;
37641;SDS011;23486;51.956;5.888;2023-05-10T03:32:19;80.15;;;37.45;;
37641;SDS011;23486;51.956;5.888;2023-05-10T03:34:45;90.55;;;39.30;;
37641;SDS011;23486;51.956;5.888;2023-05-10T03:37:11;94.40;;;41.25;;
37641;SDS011;23486;51.956;5.888;2023-05-10T03:39:36;83.13;;;38.45;;
37641;SDS011;23486;51.956;5.888;2023-05-10T03:42:02;89.53;;;40.25;;
37641;SDS011;23486;51.956;5.888;2023-05-10T03:44:27;93.03;;;41.20;;
37641;SDS011;23486;51.956;5.888;2023-05-10T03:46:53;95.20;;;43.42;;
37641;SDS011;23486;51.956;5.888;2023-05-10T03:49:18;93.50;;;42.78;;
37641;SDS011;23486;51.956;5.888;2023-05-10T03:51:44;96.25;;;43.90;;
37641;SDS011;23486;51.956;5.888;2023-05-10T03:54:10;85.57;;;40.67;;
37641;SDS011;23486;51.956;5.888;2023-05-10T03:56:35;85.80;;;39.95;;
37641;SDS011;23486;51.956;5.888;2023-05-10T03:59:01;99.10;;;43.17;;
37641;SDS011;23486;51.956;5.888;2023-05-10T04:01:26;85.93;;;39.95;;
37641;SDS011;23486;51.956;5.888;2023-05-10T04:03:52;87.95;;;39.22;;
37641;SDS011;23486;51.956;5.888;2023-05-10T04:06:17;82.03;;;38.55;;
37641;SDS011;23486;51.956;5.888;2023-05-10T04:08:43;75.78;;;35.90;;
37641;SDS011;23486;51.956;5.888;2023-05-10T04:11:10;79.78;;;35.88;;
37641;SDS011;23486;51.956;5.888;2023-05-10T04:13:36;75.85;;;35.70;;
37641;SDS011;23486;51.956;5.888;2023-05-10T04:16:03;82.22;;;35.75;;
37641;SDS011;23486;51.956;5.888;2023-05-10T04:18:29;71.43;;;35.38;;
37641;SDS011;23486;51.956;5.888;2023-05-10T04:20:55;70.32;;;30.75;;
37641;SDS011;23486;51.956;5.888;2023-05-10T04:23:20;74.78;;;32.22;;
37641;SDS011;23486;51.956;5.888;2023-05-10T04:25:46;71.63;;;34.33;;
37641;SDS011;23486;51.956;5.888;2023-05-10T04:28:12;66.95;;;33.05;;
37641;SDS011;23486;51.956;5.888;2023-05-10T04:30:37;68.85;;;31.83;;
37641;SDS011;23486;51.956;5.888;2023-05-10T04:33:03;62.47;;;30.88;;
37641;SDS011;23486;51.956;5.888;2023-05-10T04:35:29;56.22;;;27.48;;
37641;SDS011;23486;51.956;5.888;2023-05-10T04:37:54;76.15;;;36.25;;
37641;SDS011;23486;51.956;5.888;2023-05-10T04:40:20;75.70;;;33.10;;
37641;SDS011;23486;51.956;5.888;2023-05-10T04:42:46;75.70;;;34.55;;
37641;SDS011;23486;51.956;5.888;2023-05-10T04:45:11;79.93;;;35.30;;
37641;SDS011;23486;51.956;5.888;2023-05-10T04:47:39;73.72;;;33.05;;
37641;SDS011;23486;51.956;5.888;2023-05-10T04:50:05;74.38;;;32.75;;
37641;SDS011;23486;51.956;5.888;2023-05-10T04:52:31;66.07;;;29.17;;
37641;SDS011;23486;51.956;5.888;2023-05-10T04:54:57;76.53;;;31.88;;
37641;SDS011;23486;51.956;5.888;2023-05-10T04:57:22;75.75;;;31.20;;
37641;SDS011;23486;51.956;5.888;2023-05-10T04:59:48;72.57;;;31.02;;
37641;SDS011;23486;51.956;5.888;2023-05-10T05:02:13;71.60;;;30.50;;
37641;SDS011;23486;51.956;5.888;2023-05-10T05:04:39;62.40;;;27.48;;
37641;SDS011;23486;51.956;5.888;2023-05-10T05:07:04;72.43;;;31.10;;
37641;SDS011;23486;51.956;5.888;2023-05-10T05:09:30;68.93;;;29.83;;
37641;SDS011;23486;51.956;5.888;2023-05-10T05:11:57;61.28;;;28.55;;
37641;SDS011;23486;51.956;5.888;2023-05-10T05:14:23;72.72;;;30.50;;
37641;SDS011;23486;51.956;5.888;2023-05-10T05:16:50;67.03;;;30.15;;
37641;SDS011;23486;51.956;5.888;2023-05-10T05:19:16;70.57;;;29.77;;
37641;SDS011;23486;51.956;5.888;2023-05-10T05:21:41;67.00;;;29.63;;
37641;SDS011;23486;51.956;5.888;2023-05-10T05:24:07;71.50;;;31.48;;
37641;SDS011;23486;51.956;5.888;2023-05-10T05:26:33;74.50;;;33.22;;
37641;SDS011;23486;51.956;5.888;2023-05-10T05:28:59;79.82;;;32.97;;
37641;SDS011;23486;51.956;5.888;2023-05-10T05:31:24;70.00;;;31.02;;
37641;SDS011;23486;51.956;5.888;2023-05-10T05:33:50;70.50;;;31.35;;
37641;SDS011;23486;51.956;5.888;2023-05-10T05:36:15;75.95;;;32.58;;
37641;SDS011;23486;51.956;5.888;2023-05-10T05:38:41;77.80;;;34.13;;
37641;SDS011;23486;51.956;5.888;2023-05-10T05:41:08;73.93;;;33.50;;
37641;SDS011;23486;51.956;5.888;2023-05-10T05:43:33;64.40;;;29.50;;
37641;SDS011;23486;51.956;5.888;2023-05-10T05:45:59;71.88;;;30.63;;
37641;SDS011;23486;51.956;5.888;2023-05-10T05:48:24;69.72;;;30.95;;
37641;SDS011;23486;51.956;5.888;2023-05-10T05:50:50;69.38;;;30.70;;
37641;SDS011;23486;51.956;5.888;2023-05-10T05:53:19;72.35;;;31.15;;
37641;SDS011;23486;51.956;5.888;2023-05-10T05:55:54;65.78;;;27.88;;
37641;SDS011;23486;51.956;5.888;2023-05-10T05:58:22;74.47;;;30.98;;
37641;SDS011;23486;51.956;5.888;2023-05-10T06:00:49;66.65;;;28.77;;
37641;SDS011;23486;51.956;5.888;2023-05-10T06:03:15;67.35;;;29.35;;
37641;SDS011;23486;51.956;5.888;2023-05-10T06:05:41;63.20;;;29.05;;
37641;SDS011;23486;51.956;5.888;2023-05-10T06:08:06;64.50;;;29.05;;
37641;SDS011;23486;51.956;5.888;2023-05-10T06:10:32;68.03;;;28.83;;
37641;SDS011;23486;51.956;5.888;2023-05-10T06:12:57;65.38;;;31.17;;
37641;SDS011;23486;51.956;5.888;2023-05-10T06:15:23;70.18;;;32.47;;
37641;SDS011;23486;51.956;5.888;2023-05-10T06:17:48;71.35;;;32.40;;
37641;SDS011;23486;51.956;5.888;2023-05-10T06:20:15;73.82;;;32.38;;
37641;SDS011;23486;51.956;5.888;2023-05-10T06:22:41;72.95;;;31.92;;
37641;SDS011;23486;51.956;5.888;2023-05-10T06:25:06;84.32;;;34.13;;
37641;SDS011;23486;51.956;5.888;2023-05-10T06:27:33;69.70;;;30.85;;
37641;SDS011;23486;51.956;5.888;2023-05-10T06:29:58;67.63;;;32.47;;
37641;SDS011;23486;51.956;5.888;2023-05-10T06:32:24;78.10;;;32.53;;
37641;SDS011;23486;51.956;5.888;2023-05-10T06:34:50;67.40;;;31.23;;
37641;SDS011;23486;51.956;5.888;2023-05-10T06:37:15;73.97;;;31.73;;
37641;SDS011;23486;51.956;5.888;2023-05-10T06:39:41;74.68;;;31.45;;
37641;SDS011;23486;51.956;5.888;2023-05-10T06:42:07;73.55;;;32.97;;
37641;SDS011;23486;51.956;5.888;2023-05-10T06:44:32;71.15;;;32.78;;
37641;SDS011;23486;51.956;5.888;2023-05-10T06:46:58;66.95;;;32.35;;
37641;SDS011;23486;51.956;5.888;2023-05-10T06:49:24;66.20;;;31.10;;
37641;SDS011;23486;51.956;5.888;2023-05-10T06:51:49;77.85;;;34.65;;
37641;SDS011;23486;51.956;5.888;2023-05-10T06:54:15;70.47;;;31.63;;
37641;SDS011;23486;51.956;5.888;2023-05-10T06:56:40;77.88;;;35.67;;
37641;SDS011;23486;51.956;5.888;2023-05-10T06:59:06;76.22;;;36.45;;
37641;SDS011;23486;51.956;5.888;2023-05-10T07:01:32;77.07;;;34.13;;
37641;SDS011;23486;51.956;5.888;2023-05-10T07:03:57;76.00;;;34.85;;
37641;SDS011;23486;51.956;5.888;2023-05-10T07:06:23;72.35;;;33.33;;
37641;SDS011;23486;51.956;5.888;2023-05-10T07:08:49;73.65;;;35.33;;
37641;SDS011;23486;51.956;5.888;2023-05-10T07:11:14;77.85;;;37.05;;
37641;SDS011;23486;51.956;5.888;2023-05-10T07:13:40;67.43;;;32.80;;
37641;SDS011;23486;51.956;5.888;2023-05-10T07:16:08;78.63;;;36.50;;
37641;SDS011;23486;51.956;5.888;2023-05-10T07:18:35;74.35;;;36.45;;
37641;SDS011;23486;51.956;5.888;2023-05-10T07:21:01;87.05;;;40.10;;
37641;SDS011;23486;51.956;5.888;2023-05-10T07:23:27;85.45;;;39.22;;
37641;SDS011;23486;51.956;5.888;2023-05-10T07:25:52;88.65;;;39.80;;
37641;SDS011;23486;51.956;5.888;2023-05-10T07:28:18;83.68;;;38.70;;
37641;SDS011;23486;51.956;5.888;2023-05-10T07:30:45;86.97;;;38.50;;
37641;SDS011;23486;51.956;5.888;2023-05-10T07:33:12;96.57;;;41.33;;
37641;SDS011;23486;51.956;5.888;2023-05-10T07:35:38;86.97;;;39.70;;
37641;SDS011;23486;51.956;5.888;2023-05-10T07:38:04;87.68;;;38.83;;
37641;SDS011;23486;51.956;5.888;2023-05-10T07:40:30;90.00;;;40.03;;
37641;SDS011;23486;51.956;5.888;2023-05-10T07:42:56;89.65;;;38.38;;
37641;SDS011;23486;51.956;5.888;2023-05-10T07:45:22;89.90;;;38.65;;
37641;SDS011;23486;51.956;5.888;2023-05-10T07:47:48;82.57;;;38.10;;
37641;SDS011;23486;51.956;5.888;2023-05-10T07:50:13;80.18;;;36.47;;
37641;SDS011;23486;51.956;5.888;2023-05-10T07:52:39;79.75;;;36.95;;
37641;SDS011;23486;51.956;5.888;2023-05-10T07:55:05;74.82;;;33.70;;
37641;SDS011;23486;51.956;5.888;2023-05-10T07:57:32;70.55;;;31.15;;
37641;SDS011;23486;51.956;5.888;2023-05-10T07:59:58;68.15;;;30.88;;
37641;SDS011;23486;51.956;5.888;2023-05-10T08:02:24;68.32;;;31.45;;
37641;SDS011;23486;51.956;5.888;2023-05-10T08:04:50;74.47;;;35.08;;
37641;SDS011;23486;51.956;5.888;2023-05-10T08:07:16;66.03;;;31.48;;
37641;SDS011;23486;51.956;5.888;2023-05-10T08:09:42;70.95;;;34.30;;
37641;SDS011;23486;51.956;5.888;2023-05-10T08:12:08;63.05;;;31.63;;
37641;SDS011;23486;51.956;5.888;2023-05-10T08:14:33;59.38;;;29.67;;
37641;SDS011;23486;51.956;5.888;2023-05-10T08:17:01;60.20;;;30.95;;
37641;SDS011;23486;51.956;5.888;2023-05-10T08:19:27;65.25;;;32.17;;
37641;SDS011;23486;51.956;5.888;2023-05-10T08:21:52;69.80;;;35.22;;
37641;SDS011;23486;51.956;5.888;2023-05-10T08:24:20;66.18;;;34.40;;
37641;SDS011;23486;51.956;5.888;2023-05-10T08:26:46;60.25;;;31.88;;
37641;SDS011;23486;51.956;5.888;2023-05-10T08:29:12;58.55;;;30.77;;
37641;SDS011;23486;51.956;5.888;2023-05-10T08:31:38;54.85;;;30.80;;
37641;SDS011;23486;51.956;5.888;2023-05-10T08:34:04;54.08;;;29.98;;
37641;SDS011;23486;51.956;5.888;2023-05-10T08:36:29;47.15;;;26.23;;
37641;SDS011;23486;51.956;5.888;2023-05-10T08:38:55;43.28;;;23.85;;
37641;SDS011;23486;51.956;5.888;2023-05-10T08:41:21;49.15;;;27.10;;
37641;SDS011;23486;51.956;5.888;2023-05-10T08:43:49;45.05;;;26.45;;
37641;SDS011;23486;51.956;5.888;2023-05-10T08:46:16;44.97;;;25.73;;
37641;SDS011;23486;51.956;5.888;2023-05-10T08:48:43;44.83;;;25.15;;
37641;SDS011;23486;51.956;5.888;2023-05-10T08:51:12;36.88;;;21.58;;
37641;SDS011;23486;51.956;5.888;2023-05-10T08:53:39;38.45;;;20.38;;
37641;SDS011;23486;51.956;5.888;2023-05-10T08:56:04;31.73;;;18.77;;
37641;SDS011;23486;51.956;5.888;2023-05-10T08:58:30;30.50;;;17.75;;
37641;SDS011;23486;51.956;5.888;2023-05-10T09:00:56;32.15;;;17.08;;
37641;SDS011;23486;51.956;5.888;2023-05-10T09:03:24;26.67;;;15.45;;
37641;SDS011;23486;51.956;5.888;2023-05-10T09:05:49;26.23;;;16.30;;
37641;SDS011;23486;51.956;5.888;2023-05-10T09:08:15;23.88;;;14.48;;
37641;SDS011;23486;51.956;5.888;2023-05-10T09:10:45;24.55;;;13.90;;
37641;SDS011;23486;51.956;5.888;2023-05-10T09:13:12;20.83;;;13.77;;
37641;SDS011;23486;51.956;5.888;2023-05-10T09:15:40;20.25;;;11.20;;
37641;SDS011;23486;51.956;5.888;2023-05-10T09:18:05;18.95;;;10.70;;
37641;SDS011;23486;51.956;5.888;2023-05-10T09:20:31;16.35;;;10.45;;
37641;SDS011;23486;51.956;5.888;2023-05-10T09:22:58;16.45;;;9.73;;
37641;SDS011;23486;51.956;5.888;2023-05-10T09:25:24;14.52;;;9.10;;
37641;SDS011;23486;51.956;5.888;2023-05-10T09:27:49;16.92;;;9.52;;
37641;SDS011;23486;51.956;5.888;2023-05-10T09:30:28;13.00;;;7.60;;
37641;SDS011;23486;51.956;5.888;2023-05-10T09:32:55;12.55;;;7.60;;
37641;SDS011;23486;51.956;5.888;2023-05-10T09:35:23;11.65;;;6.38;;
37641;SDS011;23486;51.956;5.888;2023-05-10T09:37:51;13.80;;;8.35;;
37641;SDS011;23486;51.956;5.888;2023-05-10T09:40:20;12.13;;;7.47;;
37641;SDS011;23486;51.956;5.888;2023-05-10T09:43:29;13.80;;;7.20;;
37641;SDS011;23486;51.956;5.888;2023-05-10T09:45:36;10.93;;;6.88;;
37641;SDS011;23486;51.956;5.888;2023-05-10T09:48:02;12.85;;;7.28;;
37641;SDS011;23486;51.956;5.888;2023-05-10T09:50:31;15.38;;;8.05;;
37641;SDS011;23486;51.956;5.888;2023-05-10T09:52:58;13.38;;;8.95;;
37641;SDS011;23486;51.956;5.888;2023-05-10T09:55:47;13.27;;;8.48;;
37641;SDS011;23486;51.956;5.888;2023-05-10T09:58:14;15.02;;;9.70;;
37641;SDS011;23486;51.956;5.888;2023-05-10T10:00:40;11.43;;;8.05;;
37641;SDS011;23486;51.956;5.888;2023-05-10T10:03:14;12.25;;;7.05;;
37641;SDS011;23486;51.956;5.888;2023-05-10T10:05:42;10.05;;;6.88;;
37641;SDS011;23486;51.956;5.888;2023-05-10T10:08:08;10.65;;;6.95;;
37641;SDS011;23486;51.956;5.888;2023-05-10T10:10:35;10.68;;;6.72;;
37641;SDS011;23486;51.956;5.888;2023-05-10T10:13:01;12.60;;;6.22;;
37641;SDS011;23486;51.956;5.888;2023-05-10T10:15:27;9.40;;;4.97;;
37641;SDS011;23486;51.956;5.888;2023-05-10T10:17:53;11.30;;;6.57;;
37641;SDS011;23486;51.956;5.888;2023-05-10T10:20:19;13.18;;;6.35;;
37641;SDS011;23486;51.956;5.888;2023-05-10T10:22:46;14.43;;;7.15;;
37641;SDS011;23486;51.956;5.888;2023-05-10T10:25:13;11.13;;;7.15;;
37641;SDS011;23486;51.956;5.888;2023-05-10T10:27:47;10.52;;;6.13;;
37641;SDS011;23486;51.956;5.888;2023-05-10T10:35:23;13.65;;;7.40;;
37641;SDS011;23486;51.956;5.888;2023-05-10T10:37:49;13.85;;;7.47;;
37641;SDS011;23486;51.956;5.888;2023-05-10T10:40:29;11.73;;;8.07;;
37641;SDS011;23486;51.956;5.888;2023-05-10T10:42:56;15.90;;;9.07;;
37641;SDS011;23486;51.956;5.888;2023-05-10T10:45:23;18.33;;;8.88;;
37641;SDS011;23486;51.956;5.888;2023-05-10T10:50:47;12.88;;;8.85;;
37641;SDS011;23486;51.956;5.888;2023-05-10T10:53:12;12.00;;;7.05;;
37641;SDS011;23486;51.956;5.888;2023-05-10T10:55:45;15.15;;;8.43;;
37641;SDS011;23486;51.956;5.888;2023-05-10T10:58:12;13.90;;;8.63;;
37641;SDS011;23486;51.956;5.888;2023-05-10T11:03:41;16.35;;;9.57;;
37641;SDS011;23486;51.956;5.888;2023-05-10T11:06:28;12.07;;;7.63;;
37641;SDS011;23486;51.956;5.888;2023-05-10T11:08:57;13.77;;;8.15;;
37641;SDS011;23486;51.956;5.888;2023-05-10T11:11:22;15.88;;;8.73;;
37641;SDS011;23486;51.956;5.888;2023-05-10T11:13:48;14.40;;;9.63;;
37641;SDS011;23486;51.956;5.888;2023-05-10T11:18:51;16.17;;;8.65;;
37641;SDS011;23486;51.956;5.888;2023-05-10T11:21:18;14.45;;;9.18;;
37641;SDS011;23486;51.956;5.888;2023-05-10T11:23:48;13.73;;;8.10;;
37641;SDS011;23486;51.956;5.888;2023-05-10T11:26:26;11.18;;;8.23;;
37641;SDS011;23486;51.956;5.888;2023-05-10T11:28:56;11.43;;;7.90;;
37641;SDS011;23486;51.956;5.888;2023-05-10T11:31:23;12.35;;;8.38;;
37641;SDS011;23486;51.956;5.888;2023-05-10T11:33:52;10.93;;;7.70;;
37641;SDS011;23486;51.956;5.888;2023-05-10T11:36:25;13.52;;;7.35;;
37641;SDS011;23486;51.956;5.888;2023-05-10T11:38:53;14.00;;;8.55;;
37641;SDS011;23486;51.956;5.888;2023-05-10T11:41:19;11.85;;;7.75;;
37641;SDS011;23486;51.956;5.888;2023-05-10T11:43:52;12.18;;;7.25;;
37641;SDS011;23486;51.956;5.888;2023-05-10T11:46:19;12.55;;;7.65;;
37641;SDS011;23486;51.956;5.888;2023-05-10T11:48:46;10.85;;;7.03;;
37641;SDS011;23486;51.956;5.888;2023-05-10T11:51:15;13.77;;;7.80;;
37641;SDS011;23486;51.956;5.888;2023-05-10T11:53:44;12.68;;;6.75;;
37641;SDS011;23486;51.956;5.888;2023-05-10T11:56:10;11.30;;;6.60;;
37641;SDS011;23486;51.956;5.888;2023-05-10T11:58:39;12.27;;;6.35;;
37641;SDS011;23486;51.956;5.888;2023-05-10T12:01:05;10.70;;;6.53;;
37641;SDS011;23486;51.956;5.888;2023-05-10T12:03:32;10.60;;;5.72;;
37641;SDS011;23486;51.956;5.888;2023-05-10T12:06:00;9.75;;;5.70;;
37641;SDS011;23486;51.956;5.888;2023-05-10T12:08:27;8.77;;;6.05;;
37641;SDS011;23486;51.956;5.888;2023-05-10T12:11:03;9.43;;;5.95;;
37641;SDS011;23486;51.956;5.888;2023-05-10T12:13:31;11.88;;;6.78;;
37641;SDS011;23486;51.956;5.888;2023-05-10T12:15:59;10.32;;;6.70;;
37641;SDS011;23486;51.956;5.888;2023-05-10T12:18:44;6.68;;;4.85;;
37641;SDS011;23486;51.956;5.888;2023-05-10T12:21:10;10.38;;;6.00;;
37641;SDS011;23486;51.956;5.888;2023-05-10T12:23:40;10.95;;;4.50;;
37641;SDS011;23486;51.956;5.888;2023-05-10T12:26:08;8.30;;;5.15;;
37641;SDS011;23486;51.956;5.888;2023-05-10T12:28:35;7.80;;;4.50;;
37641;SDS011;23486;51.956;5.888;2023-05-10T12:31:01;9.95;;;5.40;;
37641;SDS011;23486;51.956;5.888;2023-05-10T12:33:27;8.75;;;4.68;;
37641;SDS011;23486;51.956;5.888;2023-05-10T12:36:11;9.73;;;6.07;;
37641;SDS011;23486;51.956;5.888;2023-05-10T12:38:40;9.82;;;4.90;;
37641;SDS011;23486;51.956;5.888;2023-05-10T12:41:11;12.05;;;5.70;;
37641;SDS011;23486;51.956;5.888;2023-05-10T12:43:38;7.90;;;5.22;;
37641;SDS011;23486;51.956;5.888;2023-05-10T12:46:08;7.25;;;4.45;;
37641;SDS011;23486;51.956;5.888;2023-05-10T12:48:35;8.30;;;4.13;;
37641;SDS011;23486;51.956;5.888;2023-05-10T12:51:02;8.13;;;4.47;;
37641;SDS011;23486;51.956;5.888;2023-05-10T12:53:29;6.80;;;4.50;;
37641;SDS011;23486;51.956;5.888;2023-05-10T12:55:55;8.75;;;4.32;;
37641;SDS011;23486;51.956;5.888;2023-05-10T12:58:21;6.30;;;3.50;;
37641;SDS011;23486;51.956;5.888;2023-05-10T13:00:47;7.43;;;4.68;;
37641;SDS011;23486;51.956;5.888;2023-05-10T13:03:12;5.65;;;3.83;;
37641;SDS011;23486;51.956;5.888;2023-05-10T13:05:38;8.65;;;4.22;;
37641;SDS011;23486;51.956;5.888;2023-05-10T13:08:04;9.05;;;3.80;;
37641;SDS011;23486;51.956;5.888;2023-05-10T13:10:30;7.45;;;4.10;;
37641;SDS011;23486;51.956;5.888;2023-05-10T13:12:56;5.07;;;3.33;;
37641;SDS011;23486;51.956;5.888;2023-05-10T13:15:25;7.65;;;3.60;;
37641;SDS011;23486;51.956;5.888;2023-05-10T13:17:51;7.80;;;2.97;;
37641;SDS011;23486;51.956;5.888;2023-05-10T13:20:16;6.13;;;3.38;;
37641;SDS011;23486;51.956;5.888;2023-05-10T13:22:42;6.82;;;3.90;;
37641;SDS011;23486;51.956;5.888;2023-05-10T13:25:09;6.40;;;4.22;;
37641;SDS011;23486;51.956;5.888;2023-05-10T13:27:35;9.02;;;3.78;;
37641;SDS011;23486;51.956;5.888;2023-05-10T13:30:02;8.10;;;3.55;;
37641;SDS011;23486;51.956;5.888;2023-05-10T13:32:29;6.22;;;3.63;;
37641;SDS011;23486;51.956;5.888;2023-05-10T13:34:55;6.95;;;3.40;;
37641;SDS011;23486;51.956;5.888;2023-05-10T13:37:20;6.72;;;4.20;;
37641;SDS011;23486;51.956;5.888;2023-05-10T13:39:47;7.65;;;4.72;;
37641;SDS011;23486;51.956;5.888;2023-05-10T13:42:13;7.95;;;5.78;;
37641;SDS011;23486;51.956;5.888;2023-05-10T13:44:39;7.43;;;5.95;;
37641;SDS011;23486;51.956;5.888;2023-05-10T13:47:05;8.70;;;6.47;;
37641;SDS011;23486;51.956;5.888;2023-05-10T13:49:31;7.63;;;6.00;;
37641;SDS011;23486;51.956;5.888;2023-05-10T13:51:57;7.18;;;5.70;;
37641;SDS011;23486;51.956;5.888;2023-05-10T13:54:23;6.70;;;5.20;;
37641;SDS011;23486;51.956;5.888;2023-05-10T13:56:48;7.70;;;5.65;;
37641;SDS011;23486;51.956;5.888;2023-05-10T13:59:14;7.80;;;5.78;;
37641;SDS011;23486;51.956;5.888;2023-05-10T14:01:41;8.60;;;7.35;;
37641;SDS011;23486;51.956;5.888;2023-05-10T14:04:08;10.25;;;7.28;;
37641;SDS011;23486;51.956;5.888;2023-05-10T14:06:35;10.90;;;8.18;;
37641;SDS011;23486;51.956;5.888;2023-05-10T14:09:01;10.93;;;7.10;;
37641;SDS011;23486;51.956;5.888;2023-05-10T14:11:28;9.75;;;8.43;;
37641;SDS011;23486;51.956;5.888;2023-05-10T14:13:54;9.90;;;8.32;;
37641;SDS011;23486;51.956;5.888;2023-05-10T14:16:20;9.32;;;7.50;;
37641;SDS011;23486;51.956;5.888;2023-05-10T14:18:46;9.95;;;8.88;;
37641;SDS011;23486;51.956;5.888;2023-05-10T14:21:11;10.15;;;8.65;;
37641;SDS011;23486;51.956;5.888;2023-05-10T14:23:38;9.10;;;8.00;;
37641;SDS011;23486;51.956;5.888;2023-05-10T14:26:04;9.35;;;8.02;;
37641;SDS011;23486;51.956;5.888;2023-05-10T14:28:30;7.55;;;6.68;;
37641;SDS011;23486;51.956;5.888;2023-05-10T14:30:55;9.68;;;8.65;;
37641;SDS011;23486;51.956;5.888;2023-05-10T14:33:21;9.25;;;8.07;;
37641;SDS011;23486;51.956;5.888;2023-05-10T14:35:47;10.48;;;9.45;;
37641;SDS011;23486;51.956;5.888;2023-05-10T14:38:13;7.53;;;6.72;;
37641;SDS011;23486;51.956;5.888;2023-05-10T14:40:39;7.65;;;6.85;;
37641;SDS011;23486;51.956;5.888;2023-05-10T14:43:04;8.63;;;7.03;;
37641;SDS011;23486;51.956;5.888;2023-05-10T14:45:30;6.65;;;5.53;;
37641;SDS011;23486;51.956;5.888;2023-05-10T14:47:56;5.90;;;3.90;;
37641;SDS011;23486;51.956;5.888;2023-05-10T14:50:22;5.25;;;2.92;;
37641;SDS011;23486;51.956;5.888;2023-05-10T14:52:48;13.45;;;3.45;;
37641;SDS011;23486;51.956;5.888;2023-05-10T14:55:14;4.30;;;2.60;;